Time;durP1;ratioP1;P1;durP2;ratioP2;P2;SDS_P1;SDS_P2;PMS_P1;PMS_P2;Temp;Humidity;BMP_temperature;BMP_pressure;BME280_temperature;BME280_humidity;BME280_pressure;Samples;Min_cycle;Max_cycle;Signal;HPM_P1;HPM_P2
2021/06/02 00:00:01;;;;;;;6.63;2.58;;;12.60;76.80;;;;;;5010324;28;20062;-64
2021/06/02 00:02:28;;;;;;;7.75;2.58;;;12.50;77.10;;;;;;4992855;28;20090;-64
2021/06/02 00:04:56;;;;;;;6.93;2.65;;;12.50;76.50;;;;;;4994207;28;20125;-64
2021/06/02 00:07:31;;;;;;;4.25;1.83;;;12.50;77.10;;;;;;4995980;28;20071;-64
2021/06/02 00:10:09;;;;;;;5.97;2.03;;;12.40;76.40;;;;;;4988195;28;20054;-64
2021/06/02 00:12:36;;;;;;;5.07;1.85;;;12.30;75.80;;;;;;4989270;28;20063;-64
2021/06/02 00:15:06;;;;;;;4.95;2.13;;;12.20;76.10;;;;;;4988442;28;20073;-64
2021/06/02 00:17:33;;;;;;;4.43;2.47;;;12.30;76.50;;;;;;4985862;28;20064;-64
2021/06/02 00:20:00;;;;;;;4.40;2.65;;;12.30;77.20;;;;;;4994187;28;20058;-64
2021/06/02 00:22:31;;;;;;;4.57;2.47;;;12.20;77.00;;;;;;5008462;28;20065;-64
2021/06/02 00:24:58;;;;;;;4.05;2.20;;;12.20;77.10;;;;;;4981697;28;20046;-65
2021/06/02 00:27:27;;;;;;;4.10;2.03;;;12.10;77.40;;;;;;4987403;28;20047;-65
2021/06/02 00:29:54;;;;;;;5.75;2.22;;;12.00;77.50;;;;;;4994333;28;20065;-65
2021/06/02 00:32:22;;;;;;;4.28;2.28;;;12.00;77.30;;;;;;4994582;28;20105;-65
2021/06/02 00:34:49;;;;;;;5.97;1.95;;;12.00;78.10;;;;;;4987117;28;20050;-64
2021/06/02 00:37:16;;;;;;;4.72;2.00;;;12.00;78.10;;;;;;4995820;28;20046;-64
2021/06/02 00:39:47;;;;;;;6.72;2.20;;;12.00;77.70;;;;;;4986519;28;20086;-65
2021/06/02 00:42:17;;;;;;;;;;;11.90;77.10;;;;;;4989915;28;20050;-65
2021/06/02 00:44:45;;;;;;;6.50;2.10;;;11.90;77.40;;;;;;4995510;28;19956;-64
2021/06/02 00:47:13;;;;;;;3.42;1.70;;;11.70;77.90;;;;;;4995170;28;20034;-64
2021/06/02 00:49:42;;;;;;;6.72;2.13;;;11.70;77.50;;;;;;4992615;28;20257;-64
2021/06/02 00:52:09;;;;;;;4.35;1.85;;;11.70;77.70;;;;;;4993913;28;20476;-64
2021/06/02 00:54:38;;;;;;;4.55;1.75;;;11.70;77.50;;;;;;4986477;28;20066;-64
2021/06/02 00:57:13;;;;;;;4.40;1.75;;;11.70;77.50;;;;;;4994501;28;20050;-64
2021/06/02 00:59:42;;;;;;;5.10;2.25;;;11.70;77.90;;;;;;5010282;28;20053;-64
2021/06/02 01:02:15;;;;;;;4.63;2.00;;;11.70;77.80;;;;;;4985925;28;20077;-65
2021/06/02 01:04:44;;;;;;;3.47;1.95;;;11.70;77.90;;;;;;4993608;28;20071;-64
2021/06/02 01:07:12;;;;;;;2.95;1.75;;;11.70;78.00;;;;;;4988880;28;20062;-64
2021/06/02 01:09:45;;;;;;;6.07;2.03;;;11.70;79.00;;;;;;4991108;28;20329;-65
2021/06/02 01:12:15;;;;;;;5.70;2.50;;;11.60;78.90;;;;;;4991423;28;20050;-64
2021/06/02 01:14:44;;;;;;;5.75;2.40;;;11.60;79.20;;;;;;4985751;28;20054;-69
2021/06/02 01:17:15;;;;;;;3.85;2.10;;;11.50;79.30;;;;;;4984512;28;20129;-66
2021/06/02 01:19:46;;;;;;;5.95;2.20;;;11.50;78.60;;;;;;4989897;28;20046;-64
2021/06/02 01:22:19;;;;;;;3.25;2.10;;;11.40;78.70;;;;;;4985413;28;20042;-64
2021/06/02 01:24:46;;;;;;;3.40;1.98;;;11.40;79.00;;;;;;4992945;28;20050;-64
2021/06/02 01:27:15;;;;;;;3.95;1.75;;;11.30;79.10;;;;;;4988338;28;20099;-64
2021/06/02 01:29:45;;;;;;;4.78;1.83;;;11.20;78.90;;;;;;4988511;28;20058;-64
2021/06/02 01:32:26;;;;;;;7.18;2.17;;;11.30;78.60;;;;;;4992382;28;20069;-65
2021/06/02 01:35:26;;;;;;;3.47;1.63;;;11.30;78.70;;;;;;4987375;28;20297;-64
2021/06/02 01:38:31;;;;;;;4.22;1.63;;;11.40;78.70;;;;;;4959794;28;20534;-64
2021/06/02 01:41:23;;;;;;;4.32;2.08;;;11.30;78.80;;;;;;4987206;28;20233;-64
2021/06/02 01:44:36;;;;;;;5.60;2.22;;;11.30;79.00;;;;;;4987471;28;20162;-64
2021/06/02 01:47:32;;;;;;;4.55;2.13;;;11.40;79.20;;;;;;4945183;28;20061;-64
2021/06/02 01:50:28;;;;;;;4.43;2.25;;;11.40;79.80;;;;;;5003417;28;20124;-64
2021/06/02 01:53:31;;;;;;;6.50;2.40;;;11.40;80.10;;;;;;4985434;28;20109;-64
2021/06/02 01:56:41;;;;;;;4.60;2.05;;;11.40;80.70;;;;;;5003794;28;20148;-64
2021/06/02 01:59:43;;;;;;;4.50;2.47;;;11.30;80.80;;;;;;4984989;28;20050;-64
2021/06/02 02:02:56;;;;;;;4.40;2.00;;;11.30;80.40;;;;;;4962595;28;20062;-64
2021/06/02 02:05:51;;;;;;;4.50;2.20;;;11.30;81.00;;;;;;4990430;28;20393;-64
2021/06/02 02:08:47;;;;;;;3.40;1.90;;;11.30;81.40;;;;;;4984763;28;20175;-65
2021/06/02 02:11:34;;;;;;;4.55;2.20;;;11.40;81.20;;;;;;4988179;28;20110;-64
2021/06/02 02:14:40;;;;;;;8.27;2.42;;;11.40;81.00;;;;;;4989252;28;20101;-65
2021/06/02 02:17:40;;;;;;;4.70;2.33;;;11.40;80.80;;;;;;4990382;28;20046;-64
2021/06/02 02:20:17;;;;;;;9.95;2.38;;;11.40;81.00;;;;;;4982091;28;20327;-64
2021/06/02 02:23:28;;;;;;;6.30;2.50;;;11.30;81.30;;;;;;4983687;28;20333;-64
2021/06/02 02:25:59;;;;;;;6.22;2.47;;;11.40;81.10;;;;;;4962913;28;20062;-64
2021/06/02 02:28:40;;;;;;;;;;;11.40;81.10;;;;;;4992838;28;20086;-64
2021/06/02 02:31:17;;;;;;;8.10;2.58;;;11.40;81.00;;;;;;4990538;28;20004;-64
2021/06/02 02:33:49;;;;;;;4.18;2.10;;;11.30;81.50;;;;;;4989548;28;20057;-64
2021/06/02 02:36:27;;;;;;;4.03;1.90;;;11.30;81.80;;;;;;4989763;28;20113;-64
2021/06/02 02:39:11;;;;;;;6.38;2.22;;;11.10;80.30;;;;;;4984104;28;20058;-65
2021/06/02 02:41:49;;;;;;;6.45;1.90;;;11.00;80.60;;;;;;4987674;28;20237;-64
2021/06/02 02:44:41;;;;;;;8.23;2.70;;;11.10;80.80;;;;;;4989325;28;20054;-64
2021/06/02 02:47:16;;;;;;;5.53;2.53;;;11.10;80.80;;;;;;4986227;28;20066;-64
2021/06/02 02:49:54;;;;;;;5.38;2.08;;;11.10;81.00;;;;;;4988530;28;20117;-64
2021/06/02 02:52:30;;;;;;;4.18;2.03;;;11.10;80.90;;;;;;4986914;28;20054;-64
2021/06/02 02:55:08;;;;;;;5.15;1.90;;;11.10;81.00;;;;;;4987084;28;20054;-64
2021/06/02 02:57:44;;;;;;;3.90;2.08;;;11.10;81.10;;;;;;4978441;28;20042;-64
2021/06/02 03:00:13;;;;;;;3.35;1.75;;;11.10;81.20;;;;;;4976283;28;20089;-65
2021/06/02 03:02:47;;;;;;;7.70;2.65;;;11.10;81.30;;;;;;4985270;28;20085;-64
2021/06/02 03:05:19;;;;;;;4.60;2.20;;;11.10;81.20;;;;;;4991688;28;20069;-64
2021/06/02 03:07:53;;;;;;;5.13;2.28;;;11.10;81.10;;;;;;4992072;28;20070;-64
2021/06/02 03:10:20;;;;;;;6.40;2.33;;;11.10;81.30;;;;;;4988225;28;20102;-65
2021/06/02 03:12:57;;;;;;;4.63;2.17;;;11.10;81.20;;;;;;4985587;28;20129;-65
2021/06/02 03:15:42;;;;;;;7.43;2.45;;;11.30;81.00;;;;;;4991269;28;20089;-64
2021/06/02 03:18:40;;;;;;;7.63;2.63;;;11.40;80.70;;;;;;4993157;28;20327;-64
2021/06/02 03:21:17;;;;;;;4.82;2.30;;;11.40;80.80;;;;;;4974327;28;20054;-64
2021/06/02 03:24:10;;;;;;;4.85;2.30;;;11.40;80.70;;;;;;4984788;28;20066;-65
2021/06/02 03:26:44;;;;;;;5.40;2.08;;;11.30;81.00;;;;;;4989038;28;20054;-65
2021/06/02 03:29:20;;;;;;;4.55;2.33;;;11.30;80.90;;;;;;4991509;28;20164;-65
2021/06/02 03:32:12;;;;;;;5.43;2.45;;;11.40;80.70;;;;;;4995073;28;20076;-65
2021/06/02 03:34:51;;;;;;;3.72;2.17;;;11.30;80.80;;;;;;4993496;28;20170;-65
2021/06/02 03:37:32;;;;;;;7.82;2.90;;;11.30;80.90;;;;;;4994825;28;20109;-64
2021/06/02 03:40:15;;;;;;;7.95;2.58;;;11.30;81.20;;;;;;4995311;28;20058;-64
2021/06/02 03:42:50;;;;;;;6.43;2.47;;;11.30;81.00;;;;;;4994389;28;20046;-65
2021/06/02 03:45:31;;;;;;;4.47;2.08;;;11.40;80.80;;;;;;4988153;28;20074;-64
2021/06/02 03:48:21;;;;;;;4.80;2.35;;;11.40;80.80;;;;;;4995282;28;20185;-65
2021/06/02 03:50:59;;;;;;;4.85;2.53;;;11.30;81.00;;;;;;4996217;28;20088;-65
2021/06/02 03:53:37;;;;;;;6.60;2.22;;;11.20;81.40;;;;;;4990106;28;20288;-64
2021/06/02 03:56:19;;;;;;;4.88;2.47;;;11.10;81.60;;;;;;4994222;28;20062;-65
2021/06/02 03:58:58;;;;;;;4.55;2.20;;;11.20;81.30;;;;;;4994008;28;20054;-65
2021/06/02 04:01:33;;;;;;;5.20;2.33;;;11.10;81.50;;;;;;4989771;28;20054;-65
2021/06/02 04:04:10;;;;;;;8.10;2.53;;;11.10;81.80;;;;;;4994863;28;20238;-65
2021/06/02 04:06:44;;;;;;;5.80;2.15;;;11.00;82.00;;;;;;4996219;28;20055;-65
2021/06/02 04:09:13;;;;;;;7.25;2.63;;;11.00;82.20;;;;;;4985022;28;20062;-65
2021/06/02 04:11:51;;;;;;;5.68;2.35;;;11.00;82.30;;;;;;4989200;28;20244;-65
2021/06/02 04:14:30;;;;;;;9.90;2.97;;;11.10;82.20;;;;;;4986418;28;20125;-65
2021/06/02 04:16:57;;;;;;;6.07;3.00;;;11.10;82.10;;;;;;4992780;28;20054;-65
2021/06/02 04:19:28;;;;;;;4.57;2.22;;;11.10;82.30;;;;;;4996436;28;20047;-65
2021/06/02 04:22:01;;;;;;;4.40;1.88;;;11.10;82.30;;;;;;4995262;28;20238;-65
2021/06/02 04:24:31;;;;;;;5.22;2.80;;;11.10;82.40;;;;;;4992845;28;20230;-65
2021/06/02 04:26:58;;;;;;;5.60;3.08;;;11.20;82.40;;;;;;4992523;28;20054;-65
2021/06/02 04:29:27;;;;;;;6.20;3.10;;;11.20;82.10;;;;;;4996453;28;20277;-65
2021/06/02 04:31:58;;;;;;;4.93;2.33;;;11.30;82.10;;;;;;4995684;28;20046;-65
2021/06/02 04:34:25;;;;;;;;;;;11.50;81.60;;;;;;4987972;28;20125;-65
2021/06/02 04:36:53;;;;;;;4.75;2.25;;;11.60;81.30;;;;;;4990098;28;20215;-65
2021/06/02 04:39:23;;;;;;;6.30;3.25;;;11.60;81.20;;;;;;4983165;28;20117;-65
2021/06/02 04:41:54;;;;;;;7.50;2.38;;;11.80;81.00;;;;;;4986351;28;20126;-65
2021/06/02 04:44:23;;;;;;;5.80;2.58;;;11.90;80.60;;;;;;4989943;28;20114;-65
2021/06/02 04:46:50;;;;;;;5.53;2.72;;;12.00;80.20;;;;;;4996012;28;20058;-65
2021/06/02 04:49:18;;;;;;;5.35;2.75;;;12.20;79.90;;;;;;4995435;28;20047;-65
2021/06/02 04:52:05;;;;;;;6.95;2.90;;;12.30;79.30;;;;;;4986965;28;20066;-64
2021/06/02 04:55:24;;;;;;;4.78;2.65;;;12.40;78.90;;;;;;4986091;28;20062;-64
2021/06/02 04:58:33;;;;;;;5.43;2.60;;;12.50;78.50;;;;;;4986995;28;20053;-66
2021/06/02 05:01:30;;;;;;;6.53;2.80;;;12.60;77.90;;;;;;4956932;28;20062;-65
2021/06/02 05:04:29;;;;;;;6.63;2.92;;;12.80;77.60;;;;;;4982865;28;20395;-65
2021/06/02 05:07:38;;;;;;;5.43;2.47;;;13.00;77.30;;;;;;4993173;28;20341;-65
2021/06/02 05:10:57;;;;;;;5.60;2.60;;;13.10;77.10;;;;;;4996137;28;20042;-65
2021/06/02 05:14:06;;;;;;;5.80;2.75;;;13.20;76.60;;;;;;4988049;28;20131;-65
2021/06/02 05:17:08;;;;;;;8.07;2.88;;;13.40;76.40;;;;;;4993855;28;20064;-65
2021/06/02 05:20:17;;;;;;;5.88;2.97;;;13.50;76.20;;;;;;4971829;28;20139;-65
2021/06/02 05:23:40;;;;;;;5.45;2.85;;;13.60;76.10;;;;;;4993549;28;20105;-65
2021/06/02 05:26:43;;;;;;;7.43;2.83;;;13.70;75.50;;;;;;4987850;28;20077;-65
2021/06/02 05:29:57;;;;;;;4.25;2.45;;;13.80;75.40;;;;;;4965749;28;20043;-65
2021/06/02 05:33:00;;;;;;;7.82;2.63;;;13.90;75.70;;;;;;4963947;28;20073;-65
2021/06/02 05:36:03;;;;;;;6.22;2.35;;;14.00;75.60;;;;;;4993293;28;20408;-64
2021/06/02 05:39:01;;;;;;;4.30;2.20;;;14.10;75.20;;;;;;4993255;28;20054;-65
2021/06/02 05:42:04;;;;;;;4.68;2.25;;;14.20;75.20;;;;;;4979471;28;20286;-65
2021/06/02 05:45:01;;;;;;;4.80;2.50;;;14.40;74.10;;;;;;4965851;28;20050;-65
2021/06/02 05:48:12;;;;;;;4.90;2.35;;;14.60;72.20;;;;;;4955417;28;20055;-65
2021/06/02 05:51:17;;;;;;;5.85;2.67;;;14.70;71.70;;;;;;4979427;28;20492;-65
2021/06/02 05:54:16;;;;;;;5.57;2.35;;;14.90;71.00;;;;;;4976398;28;20042;-65
2021/06/02 05:57:10;;;;;;;5.90;2.70;;;15.00;70.60;;;;;;4990096;28;20093;-65
2021/06/02 06:00:24;;;;;;;8.82;2.72;;;15.10;69.70;;;;;;4986760;28;20125;-65
2021/06/02 06:03:18;;;;;;;4.63;2.30;;;15.20;69.60;;;;;;4909056;29;20080;-65
2021/06/02 06:06:03;;;;;;;5.07;2.60;;;15.30;69.50;;;;;;4936872;29;20139;-65
2021/06/02 06:09:11;;;;;;;6.70;2.50;;;15.50;69.70;;;;;;4980183;28;20098;-65
2021/06/02 06:12:15;;;;;;;7.47;2.17;;;15.60;70.10;;;;;;4983200;28;20062;-65
2021/06/02 06:15:25;;;;;;;6.47;2.50;;;15.60;70.60;;;;;;4986265;28;20092;-65
2021/06/02 06:18:10;;;;;;;;;;;15.70;70.20;;;;;;4993290;28;20054;-65
2021/06/02 06:21:09;;;;;;;4.90;1.90;;;15.80;69.60;;;;;;4989749;28;19918;-65
2021/06/02 06:23:47;;;;;;;5.32;2.55;;;15.90;68.90;;;;;;4982427;28;20130;-65
2021/06/02 06:26:18;;;;;;;6.38;2.70;;;16.00;68.40;;;;;;4984171;28;20124;-65
2021/06/02 06:28:55;;;;;;;6.90;2.50;;;16.00;67.50;;;;;;4993205;28;20082;-65
2021/06/02 06:31:24;;;;;;;5.43;2.92;;;16.20;67.10;;;;;;4986235;28;20089;-65
2021/06/02 06:33:53;;;;;;;4.67;2.20;;;16.30;67.20;;;;;;4992465;28;20120;-65
2021/06/02 06:36:25;;;;;;;5.18;2.50;;;16.40;67.10;;;;;;4993015;28;20349;-65
2021/06/02 06:39:01;;;;;;;45.00;11.45;;;16.50;66.30;;;;;;4997638;28;20050;-65
2021/06/02 06:41:33;;;;;;;8.43;3.22;;;16.60;66.60;;;;;;4985028;28;20097;-65
2021/06/02 06:44:06;;;;;;;10.10;3.30;;;16.70;65.70;;;;;;4992883;28;20076;-65
2021/06/02 06:46:34;;;;;;;6.50;2.70;;;16.80;65.80;;;;;;4993096;28;20046;-65
2021/06/02 06:49:03;;;;;;;10.80;2.78;;;16.90;65.00;;;;;;4992436;28;20070;-65
2021/06/02 06:51:34;;;;;;;6.40;2.47;;;17.10;64.70;;;;;;4993291;28;20081;-65
2021/06/02 06:54:02;;;;;;;4.40;2.22;;;17.10;64.00;;;;;;4986737;28;20085;-65
2021/06/02 06:56:32;;;;;;;6.03;2.10;;;17.20;63.80;;;;;;4991913;28;20062;-65
2021/06/02 06:59:00;;;;;;;4.50;1.90;;;17.30;62.70;;;;;;4992633;28;20311;-65
2021/06/02 07:01:31;;;;;;;5.28;2.05;;;17.50;60.60;;;;;;4977337;28;20058;-65
2021/06/02 07:03:58;;;;;;;4.90;2.35;;;17.60;60.30;;;;;;4983814;28;20100;-65
2021/06/02 07:06:26;;;;;;;5.78;1.95;;;17.70;60.10;;;;;;4986599;28;20284;-65
2021/06/02 07:08:57;;;;;;;4.72;2.20;;;17.90;60.00;;;;;;4980778;28;20092;-65
2021/06/02 07:12:09;;;;;;;5.40;2.15;;;17.90;59.20;;;;;;4985816;28;20077;-65
2021/06/02 07:14:37;;;;;;;5.13;2.10;;;18.10;57.60;;;;;;4986723;28;20061;-64
2021/06/02 07:17:06;;;;;;;8.20;2.28;;;18.20;56.80;;;;;;4987736;28;20050;-64
2021/06/02 07:19:35;;;;;;;5.72;2.10;;;18.30;57.30;;;;;;4988132;28;20058;-64
2021/06/02 07:22:09;;;;;;;4.43;2.00;;;18.50;56.70;;;;;;4981139;28;20054;-65
2021/06/02 07:24:45;;;;;;;5.93;1.88;;;18.60;56.60;;;;;;4975760;28;20047;-65
2021/06/02 07:27:13;;;;;;;5.80;1.90;;;18.80;51.30;;;;;;4987164;28;20054;-65
2021/06/02 07:29:41;;;;;;;4.97;2.30;;;18.90;51.60;;;;;;4988036;28;20058;-65
2021/06/02 07:32:09;;;;;;;6.68;2.38;;;19.10;52.50;;;;;;4991972;28;20246;-65
2021/06/02 07:34:36;;;;;;;4.75;2.30;;;19.20;53.50;;;;;;4988806;28;20046;-65
2021/06/02 07:37:03;;;;;;;4.35;1.88;;;19.40;50.70;;;;;;4981280;28;20073;-65
2021/06/02 07:39:30;;;;;;;4.32;1.42;;;19.50;50.30;;;;;;4989960;28;20121;-64
2021/06/02 07:41:57;;;;;;;4.75;1.88;;;19.60;49.90;;;;;;4989452;28;20050;-64
2021/06/02 07:44:24;;;;;;;3.75;2.05;;;19.70;51.20;;;;;;4991030;28;20051;-64
2021/06/02 07:46:52;;;;;;;3.75;2.00;;;19.90;49.50;;;;;;4990603;28;20061;-65
2021/06/02 07:49:20;;;;;;;5.00;1.92;;;20.00;49.50;;;;;;4989637;28;20114;-65
2021/06/02 07:51:51;;;;;;;3.28;1.83;;;20.10;50.00;;;;;;4991059;28;20058;-65
2021/06/02 07:54:19;;;;;;;3.80;1.67;;;20.10;49.90;;;;;;4990170;28;20054;-65
2021/06/02 07:56:47;;;;;;;4.32;1.90;;;20.20;49.00;;;;;;4991426;28;20126;-65
2021/06/02 07:59:14;;;;;;;4.10;1.95;;;20.20;49.50;;;;;;4990286;28;20301;-65
2021/06/02 08:04:45;;;;;;;4.72;2.00;;;20.30;49.00;;;;;;5087986;23;20073;-64
2021/06/02 08:07:12;;;;;;;3.13;1.55;;;20.40;47.70;;;;;;4992841;28;20336;-64
2021/06/02 08:09:39;;;;;;;4.07;1.83;;;20.50;48.30;;;;;;4992897;28;20062;-64
2021/06/02 08:12:10;;;;;;;6.95;1.85;;;20.50;47.40;;;;;;4995164;28;20126;-65
2021/06/02 08:14:37;;;;;;;3.78;1.95;;;20.70;46.80;;;;;;4994465;28;20104;-64
2021/06/02 08:17:05;;;;;;;3.92;1.70;;;20.70;46.70;;;;;;4995322;28;20038;-64
2021/06/02 08:19:33;;;;;;;4.63;2.20;;;20.90;44.60;;;;;;4995785;28;20054;-65
2021/06/02 08:22:01;;;;;;;5.50;2.28;;;21.10;45.20;;;;;;4996192;28;20391;-64
2021/06/02 08:24:30;;;;;;;7.82;1.75;;;21.20;45.20;;;;;;4997088;28;20073;-64
2021/06/02 08:26:57;;;;;;;4.03;2.08;;;21.30;44.80;;;;;;4994312;28;20050;-64
2021/06/02 08:29:24;;;;;;;3.38;1.70;;;21.40;44.70;;;;;;4993322;28;20069;-65
2021/06/02 08:31:51;;;;;;;4.90;1.60;;;21.40;44.30;;;;;;4997112;28;20360;-65
2021/06/02 08:34:18;;;;;;;2.58;1.58;;;21.60;42.90;;;;;;4993480;28;20292;-65
2021/06/02 08:36:45;;;;;;;5.05;2.00;;;21.80;42.80;;;;;;4997021;28;20124;-65
2021/06/02 08:39:13;;;;;;;3.92;1.73;;;21.90;42.70;;;;;;4996626;28;20149;-65
2021/06/02 08:41:41;;;;;;;4.47;1.95;;;21.90;39.90;;;;;;4995898;28;20077;-64
2021/06/02 08:44:08;;;;;;;2.53;1.23;;;21.90;39.70;;;;;;4995165;28;20050;-65
2021/06/02 08:46:36;;;;;;;3.88;1.70;;;22.10;39.50;;;;;;4998272;28;20111;-65
2021/06/02 08:49:03;;;;;;;4.78;1.80;;;22.10;41.10;;;;;;4995526;28;20057;-65
2021/06/02 08:51:35;;;;;;;2.70;1.35;;;22.10;41.30;;;;;;4994492;28;20337;-65
2021/06/02 08:54:09;;;;;;;3.22;1.48;;;22.20;40.90;;;;;;4992915;28;20070;-65
2021/06/02 08:56:42;;;;;;;3.05;1.40;;;22.30;40.80;;;;;;4977017;28;20050;-65
2021/06/02 08:59:09;;;;;;;2.20;1.45;;;22.40;41.00;;;;;;4991585;28;20054;-65
2021/06/02 09:01:37;;;;;;;2.63;1.20;;;22.30;40.50;;;;;;4989837;28;20080;-65
2021/06/02 09:04:11;;;;;;;5.13;1.50;;;22.30;38.30;;;;;;4992441;28;20058;-66
2021/06/02 09:06:45;;;;;;;2.35;1.10;;;22.50;38.30;;;;;;4992607;28;20058;-65
2021/06/02 09:09:14;;;;;;;2.70;1.42;;;22.50;37.40;;;;;;4994936;28;20185;-65
2021/06/02 09:11:44;;;;;;;7.93;1.40;;;22.50;38.60;;;;;;4991449;28;20372;-65
2021/06/02 09:14:28;;;;;;;2.90;1.63;;;22.60;38.10;;;;;;4992584;28;20046;-65
2021/06/02 09:16:56;;;;;;;3.13;1.20;;;22.60;37.40;;;;;;4976663;28;20058;-65
2021/06/02 09:19:48;;;;;;;5.35;1.60;;;22.70;36.90;;;;;;4994498;28;20076;-65
2021/06/02 09:22:21;;;;;;;3.47;1.60;;;22.80;38.90;;;;;;4976030;28;20415;-65
2021/06/02 09:24:56;;;;;;;3.60;1.77;;;23.00;39.40;;;;;;4994201;28;20229;-64
2021/06/02 09:27:47;;;;;;;3.33;1.35;;;23.20;38.40;;;;;;4976619;28;20050;-65
2021/06/02 09:30:16;;;;;;;3.17;1.50;;;23.50;36.70;;;;;;4993859;28;20214;-65
2021/06/02 09:32:46;;;;;;;4.40;1.60;;;23.40;35.90;;;;;;4994787;28;20100;-64
2021/06/02 09:35:17;;;;;;;3.30;1.50;;;23.50;38.70;;;;;;4991734;28;20337;-65
2021/06/02 09:37:55;;;;;;;3.38;1.52;;;23.50;35.60;;;;;;4994842;28;20042;-65
2021/06/02 09:40:25;;;;;;;5.53;1.88;;;23.40;35.70;;;;;;4993529;28;20126;-65
2021/06/02 09:42:54;;;;;;;2.28;1.10;;;23.40;34.80;;;;;;4996842;28;20058;-65
2021/06/02 09:45:21;;;;;;;3.42;1.30;;;23.60;35.80;;;;;;4994988;28;20368;-66
2021/06/02 09:47:50;;;;;;;6.25;2.05;;;23.60;34.40;;;;;;4996734;28;20057;-65
2021/06/02 09:50:20;;;;;;;5.07;1.40;;;23.70;35.80;;;;;;4995978;28;20104;-64
2021/06/02 09:52:49;;;;;;;3.13;1.30;;;23.70;34.30;;;;;;4994317;28;20058;-65
2021/06/02 09:55:22;;;;;;;3.33;1.58;;;23.80;33.70;;;;;;4993782;28;20100;-65
2021/06/02 09:58:10;;;;;;;3.05;1.60;;;23.90;35.50;;;;;;4994375;28;20130;-64
2021/06/02 10:00:40;;;;;;;2.95;1.38;;;24.10;33.50;;;;;;4990981;28;20065;-64
2021/06/02 10:03:10;;;;;;;;;;;24.50;34.80;;;;;;4993882;28;20050;-65
2021/06/02 10:05:38;;;;;;;3.42;1.48;;;24.60;31.90;;;;;;4993250;28;19926;-65
2021/06/02 10:08:07;;;;;;;2.67;1.30;;;24.60;31.80;;;;;;4994857;28;20054;-64
2021/06/02 10:10:37;;;;;;;5.50;1.23;;;25.00;33.10;;;;;;4994943;28;20093;-62
2021/06/02 10:13:07;;;;;;;5.40;1.30;;;25.40;32.60;;;;;;4993811;28;20054;-64
2021/06/02 10:15:38;;;;;;;3.83;1.25;;;25.80;31.90;;;;;;4992887;28;20234;-64
2021/06/02 10:18:22;;;;;;;3.80;1.63;;;26.40;31.00;;;;;;4995793;28;20050;-64
2021/06/02 10:20:58;;;;;;;1.60;0.90;;;27.10;30.70;;;;;;4998226;28;20054;-64
2021/06/02 10:23:27;;;;;;;2.35;1.38;;;27.60;30.30;;;;;;4996666;28;20060;-64
2021/06/02 10:25:54;;;;;;;4.47;1.52;;;27.40;27.30;;;;;;4996371;28;20050;-64
2021/06/02 10:28:25;;;;;;;3.45;1.23;;;27.50;26.80;;;;;;4997894;28;20056;-64
2021/06/02 10:30:52;;;;;;;5.28;1.20;;;28.40;27.60;;;;;;4999400;28;20077;-64
2021/06/02 10:33:20;;;;;;;4.45;1.10;;;29.60;25.90;;;;;;4994607;28;20050;-64
2021/06/02 10:35:47;;;;;;;2.25;1.30;;;30.10;24.10;;;;;;4979696;28;20050;-64
2021/06/02 10:38:16;;;;;;;5.20;1.65;;;30.60;25.50;;;;;;4992070;28;20046;-64
2021/06/02 10:40:45;;;;;;;3.28;1.98;;;31.70;24.10;;;;;;4992947;28;20050;-64
2021/06/02 10:43:16;;;;;;;2.63;1.20;;;32.00;22.30;;;;;;4992678;28;20042;-65
2021/06/02 10:45:50;;;;;;;2.92;1.30;;;32.30;21.60;;;;;;4993744;28;20080;-65
2021/06/02 10:48:36;;;;;;;3.42;1.30;;;31.80;21.80;;;;;;4994552;28;20049;-65
2021/06/02 10:51:06;;;;;;;2.58;1.30;;;32.70;21.80;;;;;;4995479;28;20054;-65
2021/06/02 10:53:33;;;;;;;2.75;1.42;;;31.90;20.80;;;;;;4994472;28;20042;-65
2021/06/02 10:56:01;;;;;;;2.63;1.40;;;32.30;20.70;;;;;;4995616;28;20050;-65
2021/06/02 10:58:45;;;;;;;2.65;1.30;;;31.80;22.10;;;;;;4992313;28;20035;-65
2021/06/02 11:01:17;;;;;;;3.40;1.30;;;31.60;21.90;;;;;;4990844;28;20228;-66
2021/06/02 11:03:45;;;;;;;2.50;1.40;;;32.60;21.20;;;;;;4967392;28;20050;-66
2021/06/02 11:06:32;;;;;;;3.10;1.48;;;33.30;21.20;;;;;;4974575;28;20079;-66
2021/06/02 11:09:14;;;;;;;2.88;1.27;;;35.00;20.20;;;;;;4969480;28;20369;-66
2021/06/02 11:11:43;;;;;;;2.10;1.20;;;35.60;20.10;;;;;;4975605;28;20381;-65
2021/06/02 11:14:34;;;;;;;2.80;1.40;;;35.00;19.50;;;;;;4975599;28;20448;-65
2021/06/02 11:17:10;;;;;;;3.63;1.20;;;34.50;19.80;;;;;;4977763;28;20078;-65
2021/06/02 11:19:41;;;;;;;2.25;1.27;;;34.50;20.50;;;;;;4977531;28;20054;-65
2021/06/02 11:22:16;;;;;;;2.47;1.40;;;34.80;19.70;;;;;;4973873;28;20078;-65
2021/06/02 11:24:46;;;;;;;2.90;1.50;;;34.50;20.60;;;;;;4969780;28;20074;-66
2021/06/02 11:27:32;;;;;;;2.35;1.40;;;36.10;18.70;;;;;;4973157;28;20075;-65
2021/06/02 11:30:10;;;;;;;3.67;1.27;;;36.10;19.20;;;;;;4971606;28;20054;-66
2021/06/02 11:32:56;;;;;;;3.53;1.40;;;37.60;17.90;;;;;;4973324;28;20337;-66
2021/06/02 11:36:06;;;;;;;3.13;1.17;;;38.30;17.40;;;;;;4972050;28;20367;-66
2021/06/02 11:38:36;;;;;;;6.50;1.42;;;37.40;17.20;;;;;;4973303;28;20400;-66
2021/06/02 11:41:03;;;;;;;5.82;1.60;;;35.80;18.80;;;;;;4975710;28;20047;-66
2021/06/02 11:43:30;;;;;;;2.15;1.35;;;36.00;18.80;;;;;;4977819;28;20885;-66
2021/06/02 11:45:59;;;;;;;2.10;1.27;;;36.40;17.80;;;;;;4972680;28;20084;-65
2021/06/02 11:48:33;;;;;;;3.47;1.50;;;35.10;18.60;;;;;;4977909;28;20122;-65
2021/06/02 11:51:05;;;;;;;3.05;1.50;;;36.60;19.10;;;;;;4975037;28;20089;-65
2021/06/02 11:53:40;;;;;;;4.25;1.30;;;37.40;18.20;;;;;;4975521;28;20203;-66
2021/06/02 11:56:07;;;;;;;3.72;1.45;;;38.40;16.90;;;;;;4975933;28;20042;-66
2021/06/02 11:58:34;;;;;;;5.20;1.40;;;38.70;16.80;;;;;;4979153;28;20126;-66
2021/06/02 12:01:04;;;;;;;4.15;1.33;;;39.10;16.20;;;;;;4964803;28;20340;-66
2021/06/02 12:03:33;;;;;;;3.90;1.75;;;37.80;16.80;;;;;;4985044;28;20063;-65
2021/06/02 12:06:00;;;;;;;;;;;36.70;17.90;;;;;;4959680;28;20149;-64
2021/06/02 12:08:30;;;;;;;4.20;1.75;;;37.00;17.20;;;;;;4953899;28;19918;-65
2021/06/02 12:10:58;;;;;;;7.22;1.65;;;38.70;17.10;;;;;;4959578;28;20401;-65
2021/06/02 12:13:27;;;;;;;6.13;1.58;;;38.10;16.80;;;;;;4954831;28;20407;-65
2021/06/02 12:15:56;;;;;;;3.10;1.42;;;38.00;17.10;;;;;;4959832;28;20046;-65
2021/06/02 12:18:36;;;;;;;2.83;1.48;;;39.50;16.40;;;;;;4961232;28;20315;-65
2021/06/02 12:21:16;;;;;;;2.35;1.30;;;39.30;14.90;;;;;;4960642;28;20055;-64
2021/06/02 12:23:52;;;;;;;2.10;1.10;;;40.50;14.60;;;;;;4952051;28;20071;-64
2021/06/02 12:26:25;;;;;;;2.60;1.48;;;39.40;15.80;;;;;;4967673;28;20059;-65
2021/06/02 12:28:53;;;;;;;2.42;1.30;;;40.70;15.00;;;;;;4956134;28;20070;-65
2021/06/02 12:31:31;;;;;;;4.68;1.33;;;39.70;15.20;;;;;;4957285;28;20078;-65
2021/06/02 12:34:05;;;;;;;2.60;1.20;;;39.10;15.80;;;;;;4956074;28;20054;-66
2021/06/02 12:36:33;;;;;;;3.78;1.45;;;39.20;15.50;;;;;;4953175;28;20055;-65
2021/06/02 12:39:08;;;;;;;2.40;1.30;;;40.00;15.80;;;;;;4957100;28;20338;-66
2021/06/02 12:41:36;;;;;;;2.25;1.25;;;39.90;15.00;;;;;;4957781;28;20102;-66
2021/06/02 12:44:04;;;;;;;2.70;1.25;;;40.50;15.00;;;;;;4960567;28;20150;-65
2021/06/02 12:46:31;;;;;;;2.50;1.52;;;39.60;16.30;;;;;;4949853;28;20047;-65
2021/06/02 12:48:58;;;;;;;2.63;1.42;;;38.50;15.90;;;;;;4955630;28;20040;-65
2021/06/02 12:51:27;;;;;;;5.10;1.70;;;38.50;16.20;;;;;;4969080;28;20075;-65
2021/06/02 12:53:54;;;;;;;1.58;0.95;;;39.80;15.80;;;;;;4956670;28;20043;-65
2021/06/02 12:56:22;;;;;;;3.13;1.30;;;39.20;14.80;;;;;;4955554;28;20250;-65
2021/06/02 12:58:54;;;;;;;2.30;1.40;;;40.20;14.60;;;;;;4959411;28;20035;-65
2021/06/02 13:01:23;;;;;;;3.65;1.52;;;40.80;13.90;;;;;;4954854;28;20055;-65
2021/06/02 13:03:53;;;;;;;2.63;2.22;;;37.20;16.90;;;;;;4975884;28;20053;-65
2021/06/02 13:06:22;;;;;;;3.03;1.40;;;36.50;17.40;;;;;;4994549;28;20042;-65
2021/06/02 13:08:50;;;;;;;;;;;38.20;16.20;;;;;;4994800;28;20097;-65
2021/06/02 13:11:19;;;;;;;3.00;1.50;;;38.70;16.50;;;;;;4998152;28;19996;-66
2021/06/02 13:13:50;;;;;;;3.33;1.30;;;39.30;15.30;;;;;;4999207;28;20057;-65
2021/06/02 13:16:18;;;;;;;3.45;1.48;;;39.70;15.90;;;;;;5000492;28;20054;-66
2021/06/02 13:18:55;;;;;;;1.83;1.17;;;41.30;14.20;;;;;;5000381;28;20091;-65
2021/06/02 13:21:27;;;;;;;2.33;1.10;;;42.70;13.50;;;;;;4991395;28;20053;-66
2021/06/02 13:24:07;;;;;;;6.65;1.50;;;43.20;13.40;;;;;;4999158;28;20230;-65
2021/06/02 13:26:35;;;;;;;5.43;1.50;;;43.90;13.00;;;;;;4980756;28;20165;-65
2021/06/02 13:29:08;;;;;;;1.80;1.27;;;42.90;13.30;;;;;;4999331;28;20390;-66
2021/06/02 13:31:37;;;;;;;1.67;0.98;;;41.90;13.60;;;;;;4996983;28;20053;-65
2021/06/02 13:34:05;;;;;;;3.42;1.27;;;41.80;14.20;;;;;;4999427;28;20141;-65
2021/06/02 13:36:32;;;;;;;3.87;1.20;;;41.70;14.70;;;;;;4998468;28;20117;-65
2021/06/02 13:39:12;;;;;;;1.80;0.95;;;41.80;14.80;;;;;;4997567;28;20232;-64